createdAt,value
2023-05-07T00:00:03.647Z,13.42
2023-05-07T00:01:07.992Z,13.45
2023-05-07T00:02:12.145Z,13.41
2023-05-07T00:03:16.637Z,13.52
2023-05-07T00:04:21.276Z,13.46
2023-05-07T00:05:25.719Z,13.43
2023-05-07T00:06:29.778Z,13.42
2023-05-07T00:07:34.139Z,13.40
2023-05-07T00:08:38.451Z,13.40
2023-05-07T00:09:42.521Z,13.49
2023-05-07T00:10:46.863Z,13.36
2023-05-07T00:11:51.204Z,13.30
2023-05-07T00:12:55.579Z,13.38
2023-05-07T00:14:00.381Z,13.45
2023-05-07T00:15:04.330Z,13.45
2023-05-07T00:16:04.667Z,13.50
2023-05-07T00:17:09.157Z,13.48
2023-05-07T00:18:13.590Z,13.56
2023-05-07T00:19:18.310Z,13.66
2023-05-07T00:20:21.911Z,13.69
2023-05-07T00:21:25.993Z,13.71
2023-05-07T00:22:30.328Z,13.67
2023-05-07T00:23:34.684Z,13.56
2023-05-07T00:24:39.029Z,13.60
2023-05-07T00:25:43.870Z,13.43
2023-05-07T00:26:47.943Z,13.31
2023-05-07T00:27:52.026Z,13.36
2023-05-07T00:28:56.375Z,13.39
2023-05-07T00:30:00.716Z,13.51
2023-05-07T00:31:05.033Z,13.43
2023-05-07T00:32:09.650Z,13.25
2023-05-07T00:33:13.976Z,13.20
2023-05-07T00:34:18.603Z,13.28
2023-05-07T00:35:22.893Z,13.44
2023-05-07T00:36:26.970Z,13.43
2023-05-07T00:37:31.064Z,13.24
2023-05-07T00:38:35.658Z,13.16
2023-05-07T00:39:39.743Z,13.20
2023-05-07T00:40:44.335Z,13.12
2023-05-07T00:41:48.675Z,13.14
2023-05-07T00:42:52.742Z,13.12
2023-05-07T00:43:57.351Z,13.25
2023-05-07T00:45:01.688Z,13.14
2023-05-07T00:46:01.865Z,13.14
2023-05-07T00:47:06.381Z,13.19
2023-05-07T00:48:10.196Z,13.09
2023-05-07T00:49:14.803Z,13.04
2023-05-07T00:50:19.136Z,12.97
2023-05-07T00:51:23.214Z,13.09
2023-05-07T00:52:27.797Z,12.96
2023-05-07T00:53:31.891Z,12.84
2023-05-07T00:54:36.204Z,12.82
2023-05-07T00:55:41.060Z,12.90
2023-05-07T00:56:44.877Z,12.85
2023-05-07T00:57:49.483Z,12.85
2023-05-07T00:58:53.579Z,12.91
2023-05-07T00:59:58.147Z,12.97
2023-05-07T01:01:02.581Z,12.99
2023-05-07T01:02:06.596Z,12.82
2023-05-07T01:03:11.213Z,12.84
2023-05-07T01:04:15.616Z,12.85
2023-05-07T01:05:20.109Z,12.88
2023-05-07T01:06:24.041Z,12.81
2023-05-07T01:07:28.309Z,12.81
2023-05-07T01:08:32.897Z,12.81
2023-05-07T01:09:37.246Z,12.77
2023-05-07T01:10:41.567Z,12.71
2023-05-07T01:11:45.920Z,12.68
2023-05-07T01:12:50.071Z,12.67
2023-05-07T01:13:54.892Z,12.61
2023-05-07T01:14:58.698Z,12.63
2023-05-07T01:15:59.304Z,12.62
2023-05-07T01:17:03.424Z,12.68
2023-05-07T01:18:07.500Z,12.72
2023-05-07T01:19:11.820Z,12.79
2023-05-07T01:20:16.417Z,12.80
2023-05-07T01:21:20.496Z,12.86
2023-05-07T01:22:24.934Z,12.82
2023-05-07T01:23:29.175Z,12.81
2023-05-07T01:24:33.780Z,12.78
2023-05-07T01:25:38.350Z,12.75
2023-05-07T01:26:42.451Z,12.79
2023-05-07T01:27:46.503Z,12.80
2023-05-07T01:28:50.865Z,12.89
2023-05-07T01:29:55.208Z,12.77
2023-05-07T01:30:59.895Z,12.78
2023-05-07T01:32:03.874Z,12.81
2023-05-07T01:33:08.309Z,12.79
2023-05-07T01:34:13.070Z,12.81
2023-05-07T01:35:17.421Z,12.84
2023-05-07T01:36:21.236Z,12.83
2023-05-07T01:37:25.838Z,12.78
2023-05-07T01:38:29.954Z,12.81
2023-05-07T01:39:34.259Z,12.83
2023-05-07T01:40:38.864Z,12.87
2023-05-07T01:41:43.206Z,12.92
2023-05-07T01:42:47.767Z,13.03
2023-05-07T01:43:52.130Z,13.08
2023-05-07T01:44:56.216Z,13.18
2023-05-07T01:45:56.590Z,13.16
2023-05-07T01:47:00.661Z,13.22
2023-05-07T01:48:05.117Z,13.30
2023-05-07T01:49:09.089Z,13.34
2023-05-07T01:50:13.729Z,13.21
2023-05-07T01:51:17.772Z,13.20
2023-05-07T01:52:22.372Z,13.13
2023-05-07T01:53:26.705Z,13.10
2023-05-07T01:54:31.380Z,13.14
2023-05-07T01:55:35.631Z,13.17
2023-05-07T01:56:39.706Z,13.27
2023-05-07T01:57:44.061Z,13.26
2023-05-07T01:58:48.144Z,13.29
2023-05-07T01:59:52.749Z,13.31
2023-05-07T02:00:57.065Z,13.24
2023-05-07T02:02:01.445Z,13.26
2023-05-07T02:03:05.828Z,13.16
2023-05-07T02:04:10.436Z,13.10
2023-05-07T02:05:14.403Z,13.19
2023-05-07T02:06:18.748Z,13.28
2023-05-07T02:07:23.136Z,13.27
2023-05-07T02:08:27.443Z,13.34
2023-05-07T02:09:31.522Z,13.37
2023-05-07T02:10:35.945Z,13.35
2023-05-07T02:11:40.187Z,13.39
2023-05-07T02:12:44.832Z,13.34
2023-05-07T02:13:49.129Z,13.23
2023-05-07T02:14:53.474Z,13.04
2023-05-07T02:15:53.832Z,13.04
2023-05-07T02:16:57.723Z,13.16
2023-05-07T02:18:02.156Z,13.20
2023-05-07T02:19:06.649Z,13.14
2023-05-07T02:20:10.933Z,13.21
2023-05-07T02:21:15.285Z,13.23
2023-05-07T02:22:19.365Z,13.21
2023-05-07T02:23:23.711Z,13.27
2023-05-07T02:24:28.577Z,13.32
2023-05-07T02:25:32.931Z,13.32
2023-05-07T02:26:36.843Z,13.27
2023-05-07T02:27:41.342Z,13.17
2023-05-07T02:28:45.405Z,13.19
2023-05-07T02:29:49.764Z,13.08
2023-05-07T02:30:54.356Z,13.11
2023-05-07T02:31:58.471Z,12.93
2023-05-07T02:33:03.289Z,12.88
2023-05-07T02:34:07.625Z,12.90
2023-05-07T02:35:11.735Z,12.89
2023-05-07T02:36:16.040Z,12.83
2023-05-07T02:37:20.124Z,12.85
2023-05-07T02:38:24.711Z,12.84
2023-05-07T02:39:29.089Z,12.87
2023-05-07T02:40:33.151Z,12.94
2023-05-07T02:41:37.731Z,12.94
2023-05-07T02:42:42.221Z,12.87
2023-05-07T02:43:46.645Z,12.90
2023-05-07T02:44:50.767Z,13.01
2023-05-07T02:45:51.296Z,13.06
2023-05-07T02:46:55.288Z,13.14
2023-05-07T02:47:59.410Z,13.15
2023-05-07T02:49:03.770Z,13.12
2023-05-07T02:50:08.413Z,13.11
2023-05-07T02:51:12.657Z,13.11
2023-05-07T02:52:16.968Z,13.21
2023-05-07T02:53:21.067Z,13.25
2023-05-07T02:54:25.908Z,13.23
2023-05-07T02:55:29.731Z,13.11
2023-05-07T02:56:34.326Z,13.19
2023-05-07T02:57:38.654Z,13.14
2023-05-07T02:58:43.119Z,13.09
2023-05-07T02:59:47.110Z,13.09
2023-05-07T03:00:51.802Z,12.90
2023-05-07T03:01:56.067Z,12.86
2023-05-07T03:03:00.665Z,12.89
2023-05-07T03:04:05.001Z,12.82
2023-05-07T03:05:09.058Z,12.84
2023-05-07T03:06:13.403Z,12.75
2023-05-07T03:07:17.509Z,12.83
2023-05-07T03:08:22.081Z,12.80
2023-05-07T03:09:26.150Z,12.78
2023-05-07T03:10:30.740Z,12.81
2023-05-07T03:11:35.075Z,12.80
2023-05-07T03:12:39.712Z,12.92
2023-05-07T03:13:43.779Z,12.98
2023-05-07T03:14:48.224Z,13.03
2023-05-07T03:15:48.336Z,13.04
2023-05-07T03:16:52.674Z,13.02
2023-05-07T03:18:40.008Z,13.11
2023-05-07T03:19:45.599Z,13.03
2023-05-07T03:20:49.805Z,12.97
2023-05-07T03:21:54.054Z,13.02
2023-05-07T03:22:58.119Z,12.88
2023-05-07T03:24:02.719Z,12.80
2023-05-07T03:25:06.794Z,12.70
2023-05-07T03:26:11.381Z,12.66
2023-05-07T03:27:15.461Z,12.72
2023-05-07T03:28:20.324Z,12.77
2023-05-07T03:29:24.417Z,12.79
2023-05-07T03:30:28.583Z,12.73
2023-05-07T03:31:32.940Z,12.75
2023-05-07T03:32:37.194Z,12.72
2023-05-07T03:33:41.729Z,12.58
2023-05-07T03:34:46.100Z,12.55
2023-05-07T03:35:50.424Z,12.50
2023-05-07T03:36:54.492Z,12.58
2023-05-07T03:37:59.357Z,12.53
2023-05-07T03:39:03.412Z,12.54
2023-05-07T03:40:07.812Z,12.61
2023-05-07T03:41:12.108Z,12.63
2023-05-07T03:42:16.452Z,12.68
2023-05-07T03:43:20.516Z,12.71
2023-05-07T03:44:24.855Z,12.73
2023-05-07T03:45:29.182Z,12.77
2023-05-07T03:46:34.026Z,12.81
2023-05-07T03:47:38.005Z,12.80
2023-05-07T03:48:38.236Z,12.81
2023-05-07T03:49:42.806Z,12.84
2023-05-07T03:50:46.903Z,12.88
2023-05-07T03:51:50.985Z,12.88
2023-05-07T03:52:55.343Z,12.89
2023-05-07T03:53:59.667Z,12.85
2023-05-07T03:55:04.264Z,12.72
2023-05-07T03:56:08.592Z,12.71
2023-05-07T03:57:12.668Z,12.74
2023-05-07T03:58:17.506Z,12.78
2023-05-07T03:59:21.604Z,12.78
2023-05-07T04:00:25.954Z,12.78
2023-05-07T04:01:30.036Z,12.74
2023-05-07T04:02:34.610Z,12.76
2023-05-07T04:03:39.044Z,12.61
2023-05-07T04:04:43.026Z,12.67
2023-05-07T04:05:47.351Z,12.70
2023-05-07T04:06:51.934Z,12.74
2023-05-07T04:07:56.281Z,12.76
2023-05-07T04:09:00.849Z,12.83
2023-05-07T04:10:04.982Z,12.83
2023-05-07T04:11:09.040Z,12.83
2023-05-07T04:12:13.620Z,12.87
2023-05-07T04:13:18.062Z,12.82
2023-05-07T04:14:22.037Z,12.84
2023-05-07T04:15:26.640Z,12.83
2023-05-07T04:16:31.037Z,12.86
2023-05-07T04:17:35.380Z,12.86
2023-05-07T04:18:35.201Z,12.81
2023-05-07T04:19:40.051Z,12.85
2023-05-07T04:20:43.860Z,12.83
2023-05-07T04:21:48.219Z,12.87
2023-05-07T04:22:52.839Z,12.89
2023-05-07T04:23:56.916Z,12.90
2023-05-07T04:25:01.230Z,12.87
2023-05-07T04:26:05.828Z,12.89
2023-05-07T04:27:10.190Z,12.86
2023-05-07T04:28:14.769Z,12.78
2023-05-07T04:29:19.096Z,12.79
2023-05-07T04:30:22.905Z,12.75
2023-05-07T04:31:27.358Z,12.78
2023-05-07T04:32:31.854Z,12.76
2023-05-07T04:33:36.276Z,12.76
2023-05-07T04:34:40.533Z,12.71
2023-05-07T04:35:44.872Z,12.65
2023-05-07T04:36:49.222Z,12.45
2023-05-07T04:37:53.793Z,12.38
2023-05-07T04:38:57.860Z,12.46
2023-05-07T04:40:01.947Z,12.51
2023-05-07T04:41:06.373Z,12.36
2023-05-07T04:42:10.667Z,12.24
2023-05-07T04:43:15.253Z,12.15
2023-05-07T04:44:19.583Z,12.08
2023-05-07T04:45:23.916Z,12.03
2023-05-07T04:46:28.382Z,11.93
2023-05-07T04:47:32.851Z,11.88
2023-05-07T04:48:32.684Z,11.85
2023-05-07T04:49:37.350Z,11.69
2023-05-07T04:50:41.351Z,11.69
2023-05-07T04:51:45.453Z,11.67
2023-05-07T04:52:49.806Z,11.74
2023-05-07T04:53:54.420Z,11.62
2023-05-07T04:54:58.513Z,11.57
2023-05-07T04:56:03.130Z,11.49
2023-05-07T04:57:07.496Z,11.47
2023-05-07T04:58:12.076Z,11.56
2023-05-07T04:59:16.176Z,11.52
2023-05-07T05:00:20.518Z,11.58
2023-05-07T05:01:24.627Z,11.54
2023-05-07T05:02:29.237Z,11.53
2023-05-07T05:03:33.608Z,11.48
2023-05-07T05:04:37.898Z,11.52
2023-05-07T05:05:42.008Z,11.57
2023-05-07T05:06:46.829Z,11.67
2023-05-07T05:07:50.952Z,11.77
2023-05-07T05:08:55.303Z,11.88
2023-05-07T05:09:59.430Z,11.92
2023-05-07T05:11:03.789Z,11.96
2023-05-07T05:12:08.464Z,11.95
2023-05-07T05:13:12.513Z,11.87
2023-05-07T05:14:17.111Z,11.71
2023-05-07T05:15:21.764Z,11.61
2023-05-07T05:16:26.114Z,11.43
2023-05-07T05:17:29.949Z,11.38
2023-05-07T05:18:30.300Z,11.36
2023-05-07T05:19:34.358Z,11.51
2023-05-07T05:20:38.941Z,11.58
2023-05-07T05:21:43.216Z,11.58
2023-05-07T05:22:47.397Z,11.57
2023-05-07T05:23:51.721Z,11.53
2023-05-07T05:24:56.310Z,11.51
2023-05-07T05:26:00.398Z,11.48
2023-05-07T05:27:05.272Z,11.52
2023-05-07T05:28:09.652Z,11.54
2023-05-07T05:29:13.490Z,11.62
2023-05-07T05:30:17.827Z,11.67
2023-05-07T05:31:22.230Z,11.57
2023-05-07T05:32:26.564Z,11.47
2023-05-07T05:33:31.178Z,11.44
2023-05-07T05:34:35.529Z,11.41
2023-05-07T05:35:39.669Z,11.45
2023-05-07T05:36:44.470Z,11.43
2023-05-07T05:37:48.937Z,11.31
2023-05-07T05:38:52.703Z,11.23
2023-05-07T05:39:57.329Z,11.36
2023-05-07T05:41:01.655Z,11.27
2023-05-07T05:42:06.028Z,11.17
2023-05-07T05:43:10.122Z,11.19
2023-05-07T05:44:14.746Z,11.27
2023-05-07T05:45:19.094Z,11.28
2023-05-07T05:46:23.727Z,11.31
2023-05-07T05:47:27.668Z,11.23
2023-05-07T05:48:27.905Z,11.25
2023-05-07T05:49:31.991Z,11.28
2023-05-07T05:50:36.315Z,11.43
2023-05-07T05:51:40.649Z,11.48
2023-05-07T05:52:45.248Z,11.42
2023-05-07T05:53:49.667Z,11.43
2023-05-07T05:54:53.912Z,11.35
2023-05-07T05:55:58.016Z,11.37
2023-05-07T05:57:02.881Z,11.37
2023-05-07T05:58:06.987Z,11.44
2023-05-07T05:59:11.110Z,11.47
2023-05-07T06:00:15.671Z,11.62
2023-05-07T06:01:20.055Z,11.66
2023-05-07T06:02:24.502Z,11.62
2023-05-07T06:03:28.539Z,11.70
2023-05-07T06:04:33.136Z,11.81
2023-05-07T06:05:37.460Z,11.80
2023-05-07T06:06:41.830Z,11.75
2023-05-07T06:07:46.217Z,11.67
2023-05-07T06:08:50.549Z,11.64
2023-05-07T06:09:54.825Z,11.64
2023-05-07T06:10:59.244Z,11.68
2023-05-07T06:12:03.613Z,11.75
2023-05-07T06:13:08.033Z,11.60
2023-05-07T06:14:12.071Z,11.56
2023-05-07T06:15:16.927Z,11.58
2023-05-07T06:16:20.823Z,11.71
2023-05-07T06:17:25.156Z,11.70
2023-05-07T06:18:25.846Z,11.80
2023-05-07T06:19:29.944Z,11.88
2023-05-07T06:20:34.005Z,11.96
2023-05-07T06:21:38.354Z,12.00
2023-05-07T06:22:42.705Z,11.99
2023-05-07T06:23:47.329Z,11.97
2023-05-07T06:24:51.701Z,11.88
2023-05-07T06:25:56.442Z,11.85
2023-05-07T06:27:00.416Z,11.88
2023-05-07T06:28:04.750Z,11.85
2023-05-07T06:29:09.434Z,11.79
2023-05-07T06:30:13.611Z,11.93
2023-05-07T06:31:17.978Z,11.71
2023-05-07T06:32:22.473Z,11.80
2023-05-07T06:33:26.531Z,11.94
2023-05-07T06:34:31.423Z,12.02
2023-05-07T06:35:35.497Z,12.11
2023-05-07T06:36:39.605Z,12.15
2023-05-07T06:37:43.939Z,12.19
2023-05-07T06:38:48.269Z,12.21
2023-05-07T06:39:52.861Z,12.19
2023-05-07T06:40:57.222Z,12.03
2023-05-07T06:42:01.684Z,11.98
2023-05-07T06:43:05.643Z,11.92
2023-05-07T06:44:10.504Z,11.89
2023-05-07T06:45:14.594Z,12.02
2023-05-07T06:46:18.789Z,12.07
2023-05-07T06:47:23.345Z,12.14
2023-05-07T06:48:23.508Z,12.18
2023-05-07T06:49:27.586Z,12.26
2023-05-07T06:50:32.211Z,12.17
2023-05-07T06:51:36.549Z,12.04
2023-05-07T06:52:40.657Z,12.10
2023-05-07T06:53:45.266Z,12.13
2023-05-07T06:54:49.618Z,12.11
2023-05-07T06:55:54.230Z,12.16
2023-05-07T06:56:58.337Z,12.15
2023-05-07T06:58:02.529Z,12.27
2023-05-07T06:59:06.785Z,12.35
2023-05-07T07:00:12.376Z,12.45
2023-05-07T07:01:11.557Z,12.45
2023-05-07T07:02:17.701Z,12.45
2023-05-07T07:03:20.238Z,12.35
2023-05-07T07:04:24.600Z,12.28
2023-05-07T07:05:28.928Z,12.26
2023-05-07T07:06:33.554Z,12.26
2023-05-07T07:07:37.875Z,12.08
2023-05-07T07:08:41.993Z,12.12
2023-05-07T07:09:46.074Z,11.96
2023-05-07T07:10:50.688Z,11.99
2023-05-07T07:11:55.035Z,11.92
2023-05-07T07:12:59.182Z,11.88
2023-05-07T07:14:03.841Z,11.89
2023-05-07T07:15:08.077Z,11.83
2023-05-07T07:16:12.721Z,11.86
2023-05-07T07:17:17.757Z,11.84
2023-05-07T07:18:18.417Z,11.67
2023-05-07T07:19:21.951Z,11.62
2023-05-07T07:20:26.276Z,11.74
2023-05-07T07:21:30.618Z,11.70
2023-05-07T07:22:35.246Z,11.77
2023-05-07T07:23:39.577Z,11.69
2023-05-07T07:24:43.952Z,11.79
2023-05-07T07:25:48.036Z,11.77
2023-05-07T07:26:52.892Z,11.77
2023-05-07T07:27:56.984Z,11.81
2023-05-07T07:29:01.086Z,11.81
2023-05-07T07:30:05.804Z,11.88
2023-05-07T07:31:10.090Z,11.95
2023-05-07T07:32:14.424Z,12.05
2023-05-07T07:33:18.500Z,12.01
2023-05-07T07:34:23.098Z,12.03
2023-05-07T07:35:27.689Z,12.15
2023-05-07T07:36:42.804Z,12.22
2023-05-07T07:37:35.886Z,12.23
2023-05-07T07:38:40.251Z,12.07
2023-05-07T07:39:44.846Z,12.02
2023-05-07T07:40:48.950Z,11.98
2023-05-07T07:41:53.303Z,11.99
2023-05-07T07:42:57.681Z,12.00
2023-05-07T07:44:02.046Z,12.08
2023-05-07T07:45:06.908Z,12.23
2023-05-07T07:46:11.033Z,12.25
2023-05-07T07:47:15.187Z,12.29
2023-05-07T07:48:16.083Z,12.42
2023-05-07T07:49:19.638Z,12.62
2023-05-07T07:50:36.021Z,12.72
2023-05-07T07:51:28.617Z,12.79
2023-05-07T07:52:32.967Z,12.94
2023-05-07T07:53:37.061Z,13.15
2023-05-07T07:54:41.685Z,13.35
2023-05-07T07:55:46.053Z,13.42
2023-05-07T07:56:50.674Z,13.49
2023-05-07T07:57:54.775Z,13.59
2023-05-07T07:58:58.835Z,13.77
2023-05-07T08:00:03.441Z,13.81
2023-05-07T08:01:07.772Z,13.80
2023-05-07T08:02:12.346Z,13.79
2023-05-07T08:03:16.534Z,13.56
2023-05-07T08:04:20.570Z,13.49
2023-05-07T08:05:25.402Z,13.30
2023-05-07T08:06:29.484Z,13.31
2023-05-07T08:07:33.817Z,13.33
2023-05-07T08:08:37.904Z,13.48
2023-05-07T08:12:25.753Z,13.81
2023-05-07T08:13:30.611Z,13.78
2023-05-07T08:14:34.418Z,13.76
2023-05-07T08:15:38.761Z,13.87
2023-05-07T08:16:43.456Z,13.89
2023-05-07T08:17:47.896Z,13.86
2023-05-07T08:18:52.081Z,14.00
2023-05-07T08:19:56.403Z,13.80
2023-05-07T08:21:00.496Z,13.95
2023-05-07T08:22:05.368Z,14.06
2023-05-07T08:23:09.452Z,14.04
2023-05-07T08:24:13.530Z,14.01
2023-05-07T08:25:17.850Z,14.05
2023-05-07T08:26:22.199Z,13.67
2023-05-07T08:27:26.760Z,13.60
2023-05-07T08:28:31.116Z,13.48
2023-05-07T08:29:35.484Z,13.34
2023-05-07T08:30:39.899Z,13.41
2023-05-07T08:31:44.450Z,13.49
2023-05-07T08:32:48.276Z,13.39
2023-05-07T08:33:52.916Z,13.27
2023-05-07T08:34:56.901Z,13.50
2023-05-07T08:36:01.235Z,13.62
2023-05-07T08:37:05.859Z,13.53
2023-05-07T08:38:09.948Z,13.26
2023-05-07T08:39:14.525Z,13.20
2023-05-07T08:40:19.501Z,13.21
2023-05-07T08:41:22.730Z,13.45
2023-05-07T08:42:23.297Z,13.47
2023-05-07T08:43:27.666Z,13.53
2023-05-07T08:44:32.010Z,13.24
2023-05-07T08:45:36.102Z,13.25
2023-05-07T08:46:40.708Z,13.17
2023-05-07T08:47:45.097Z,13.28
2023-05-07T08:48:49.090Z,13.12
2023-05-07T08:49:53.950Z,12.96
2023-05-07T08:50:57.775Z,12.85
2023-05-07T08:52:02.386Z,12.86
2023-05-07T08:53:06.480Z,12.74
2023-05-07T08:54:11.075Z,12.78
2023-05-07T08:55:15.372Z,12.76
2023-05-07T08:56:20.937Z,12.90
2023-05-07T08:57:24.067Z,12.89
2023-05-07T08:58:28.149Z,13.03
2023-05-07T08:59:32.759Z,13.01
2023-05-07T09:00:37.082Z,12.99
2023-05-07T09:01:41.452Z,12.97
2023-05-07T09:02:45.526Z,13.00
2023-05-07T09:03:49.915Z,12.74
2023-05-07T09:04:54.443Z,12.91
2023-05-07T09:05:58.621Z,12.87
2023-05-07T09:07:02.850Z,12.63
2023-05-07T09:08:07.233Z,12.80
2023-05-07T09:09:11.781Z,12.69
2023-05-07T09:10:16.128Z,12.65
2023-05-07T09:11:20.474Z,12.76
2023-05-07T09:12:20.847Z,12.66
2023-05-07T09:13:24.793Z,12.45
2023-05-07T09:14:29.265Z,12.55
2023-05-07T09:15:33.588Z,12.66
2023-05-07T09:16:38.024Z,12.47
2023-05-07T09:17:42.097Z,12.52
2023-05-07T09:18:46.375Z,12.59
2023-05-07T09:19:50.977Z,12.59
2023-05-07T09:20:55.547Z,12.45
2023-05-07T09:22:00.066Z,12.59
2023-05-07T09:23:03.970Z,12.57
2023-05-07T09:24:08.048Z,12.53
2023-05-07T09:25:12.676Z,12.74
2023-05-07T09:26:16.757Z,12.58
2023-05-07T09:27:21.352Z,12.51
2023-05-07T09:28:25.414Z,12.47
2023-05-07T09:29:30.032Z,12.45
2023-05-07T09:30:34.621Z,12.35
2023-05-07T09:31:39.020Z,12.47
2023-05-07T09:32:42.801Z,12.51
2023-05-07T09:33:47.122Z,12.42
2023-05-07T09:34:51.732Z,12.43
2023-05-07T09:35:56.053Z,12.36
2023-05-07T09:37:00.129Z,12.54
2023-05-07T09:38:04.815Z,12.53
2023-05-07T09:39:09.056Z,12.61
2023-05-07T09:40:13.668Z,12.62
2023-05-07T09:41:17.772Z,12.59
2023-05-07T09:42:17.922Z,12.49
2023-05-07T09:43:21.971Z,12.48
2023-05-07T09:44:26.305Z,12.53
2023-05-07T09:45:30.724Z,12.51
2023-05-07T09:46:34.980Z,12.52
2023-05-07T09:47:39.352Z,12.49
2023-05-07T09:48:43.675Z,12.56
2023-05-07T09:49:48.287Z,12.47
2023-05-07T09:50:52.654Z,12.52
2023-05-07T09:51:56.989Z,12.57
2023-05-07T09:53:01.098Z,12.59
2023-05-07T09:54:05.820Z,12.73
2023-05-07T09:55:10.370Z,12.71
2023-05-07T09:56:14.158Z,12.66
2023-05-07T09:57:18.747Z,12.62
2023-05-07T09:58:23.096Z,12.75
2023-05-07T09:59:30.062Z,12.86
2023-05-07T10:00:32.006Z,12.75
2023-05-07T10:01:35.861Z,12.77
2023-05-07T10:02:40.265Z,12.72
2023-05-07T10:03:44.845Z,12.79
2023-05-07T10:04:49.153Z,12.92
2023-05-07T10:05:53.464Z,12.79
2023-05-07T10:06:57.544Z,12.91
2023-05-07T10:08:04.658Z,12.85
2023-05-07T10:09:06.731Z,12.95
2023-05-07T10:10:10.952Z,13.06
2023-05-07T10:11:15.176Z,13.01
2023-05-07T10:12:15.296Z,13.13
2023-05-07T10:13:19.387Z,13.25
2023-05-07T10:14:23.715Z,13.26
2023-05-07T10:15:28.313Z,13.22
2023-05-07T10:16:32.687Z,13.26
2023-05-07T10:17:37.035Z,13.47
2023-05-07T10:18:41.389Z,13.39
2023-05-07T10:19:45.432Z,13.51
2023-05-07T10:20:49.996Z,13.41
2023-05-07T10:21:54.384Z,13.36
2023-05-07T10:22:58.458Z,13.54
2023-05-07T10:24:02.811Z,13.68
2023-05-07T10:25:09.066Z,13.53
2023-05-07T10:26:11.513Z,13.56
2023-05-07T10:27:15.807Z,13.53
2023-05-07T10:28:20.143Z,13.64
2023-05-07T10:29:24.974Z,13.74
2023-05-07T10:30:30.243Z,13.83
2023-05-07T10:31:33.319Z,13.89
2023-05-07T10:32:37.786Z,13.61
2023-05-07T10:33:42.123Z,13.61
2023-05-07T10:34:46.459Z,13.74
2023-05-07T10:35:50.521Z,13.92
2023-05-07T10:36:54.852Z,14.00
2023-05-07T10:37:59.450Z,14.13
2023-05-07T10:39:03.795Z,14.20
2023-05-07T10:40:07.927Z,14.37
2023-05-07T10:41:12.252Z,14.46
2023-05-07T10:42:12.621Z,14.41
2023-05-07T10:43:16.963Z,14.44
2023-05-07T10:44:21.020Z,14.51
2023-05-07T10:45:25.380Z,14.43
2023-05-07T10:46:29.734Z,14.55
2023-05-07T10:47:34.405Z,14.38
2023-05-07T10:48:38.621Z,14.30
2023-05-07T10:49:43.220Z,14.23
2023-05-07T10:50:47.638Z,14.35
2023-05-07T10:51:51.372Z,14.30
2023-05-07T10:52:55.721Z,14.36
2023-05-07T10:54:00.311Z,14.55
2023-05-07T10:55:04.404Z,14.39
2023-05-07T10:56:08.737Z,14.31
2023-05-07T10:57:13.423Z,14.47
2023-05-07T10:58:30.212Z,14.23
2023-05-07T10:59:22.240Z,13.98
2023-05-07T11:00:39.110Z,13.94
2023-05-07T11:01:30.700Z,13.86
2023-05-07T11:02:35.063Z,13.87
2023-05-07T11:03:39.094Z,13.87
2023-05-07T11:04:43.454Z,13.90
2023-05-07T11:05:47.880Z,14.04
2023-05-07T11:06:52.103Z,14.07
2023-05-07T11:07:56.966Z,14.02
2023-05-07T11:09:01.030Z,14.25
2023-05-07T11:10:05.530Z,14.17
2023-05-07T11:11:09.463Z,14.35
2023-05-07T11:12:09.938Z,14.49
2023-05-07T11:13:14.190Z,14.34
2023-05-07T11:14:18.350Z,14.52
2023-05-07T11:15:22.683Z,14.44
2023-05-07T11:16:27.332Z,14.24
2023-05-07T11:17:31.618Z,14.16
2023-05-07T11:18:35.849Z,14.15
2023-05-07T11:19:40.459Z,14.17
2023-05-07T11:20:44.798Z,14.18
2023-05-07T11:21:49.122Z,14.15
2023-05-07T11:22:54.851Z,14.12
2023-05-07T11:23:57.548Z,14.11
2023-05-07T11:25:01.898Z,14.35
2023-05-07T11:26:06.242Z,14.45
2023-05-07T11:27:10.573Z,14.58
2023-05-07T11:28:15.434Z,14.52
2023-05-07T11:29:21.734Z,14.50
2023-05-07T11:30:23.647Z,14.63
2023-05-07T11:31:28.219Z,14.30
2023-05-07T11:32:32.631Z,14.10
2023-05-07T11:33:36.607Z,14.47
2023-05-07T11:34:41.184Z,14.69
2023-05-07T11:35:45.530Z,14.77
2023-05-07T11:36:49.596Z,14.87
2023-05-07T11:37:54.454Z,14.92
2023-05-07T11:38:58.516Z,15.24
2023-05-07T11:40:02.596Z,15.39
2023-05-07T11:41:07.207Z,15.18
2023-05-07T11:42:07.389Z,15.21
2023-05-07T11:43:11.461Z,15.26
2023-05-07T11:44:15.794Z,15.30
2023-05-07T11:45:20.292Z,15.32
2023-05-07T11:46:24.962Z,15.67
2023-05-07T11:47:28.844Z,15.70
2023-05-07T11:48:33.153Z,15.76
2023-05-07T11:49:38.001Z,15.60
2023-05-07T11:50:41.826Z,15.76
2023-05-07T11:51:46.429Z,15.72
2023-05-07T11:52:50.496Z,15.70
2023-05-07T11:53:55.111Z,15.75
2023-05-07T11:54:59.429Z,15.99
2023-05-07T11:56:03.517Z,16.31
2023-05-07T11:57:08.116Z,16.41
2023-05-07T11:58:12.690Z,16.02
2023-05-07T11:59:17.036Z,15.99
2023-05-07T12:00:21.139Z,15.98
2023-05-07T12:01:25.502Z,15.75
2023-05-07T12:02:29.672Z,15.76
2023-05-07T12:03:36.371Z,15.59
2023-05-07T12:04:38.535Z,15.47
2023-05-07T12:05:42.894Z,15.68
2023-05-07T12:06:47.175Z,15.73
2023-05-07T12:07:51.736Z,15.21
2023-05-07T12:08:55.804Z,15.02
2023-05-07T12:09:59.895Z,15.13
2023-05-07T12:11:04.246Z,15.21
2023-05-07T12:12:04.899Z,15.08
2023-05-07T12:13:09.021Z,14.77
2023-05-07T12:14:13.077Z,14.76
2023-05-07T12:15:17.672Z,14.98
2023-05-07T12:16:22.024Z,14.90
2023-05-07T12:17:26.126Z,14.95
2023-05-07T12:18:30.929Z,15.28
2023-05-07T12:19:35.024Z,15.24
2023-05-07T12:20:39.374Z,15.30
2023-05-07T12:21:43.461Z,15.51
2023-05-07T12:22:47.785Z,15.38
2023-05-07T12:23:52.142Z,15.72
2023-05-07T12:24:56.767Z,16.25
2023-05-07T12:26:00.832Z,16.14
2023-05-07T12:27:05.428Z,16.08
2023-05-07T12:28:09.756Z,16.20
2023-05-07T12:29:14.335Z,16.38
2023-05-07T12:30:18.459Z,16.21
2023-05-07T12:31:22.574Z,16.14
2023-05-07T12:32:26.895Z,16.17
2023-05-07T12:33:31.225Z,16.05
2023-05-07T12:34:35.784Z,16.29
2023-05-07T12:35:40.132Z,16.63
2023-05-07T12:36:44.732Z,16.85
2023-05-07T12:37:49.052Z,17.08
2023-05-07T12:38:52.902Z,16.72
2023-05-07T12:39:57.232Z,16.29
2023-05-07T12:41:01.816Z,16.10
2023-05-07T12:42:01.964Z,16.28
2023-05-07T12:43:06.030Z,16.20
2023-05-07T12:44:10.639Z,16.27
2023-05-07T12:45:15.252Z,16.91
2023-05-07T12:46:19.061Z,17.16
2023-05-07T12:47:23.674Z,17.12
2023-05-07T12:48:28.279Z,17.58
2023-05-07T12:49:32.620Z,17.40
2023-05-07T12:50:36.643Z,17.26
2023-05-07T12:51:41.015Z,17.23
2023-05-07T12:52:45.075Z,17.22
2023-05-07T12:53:49.409Z,16.99
2023-05-07T12:54:53.742Z,17.43
2023-05-07T12:55:58.084Z,17.51
2023-05-07T12:57:02.416Z,17.51
2023-05-07T12:58:07.020Z,17.56
2023-05-07T12:59:11.346Z,17.95
2023-05-07T13:00:15.454Z,17.69
2023-05-07T13:01:19.791Z,17.72
2023-05-07T13:02:24.469Z,17.64
2023-05-07T13:03:28.546Z,17.58
2023-05-07T13:04:32.788Z,17.07
2023-05-07T13:05:37.437Z,16.73
2023-05-07T13:06:41.999Z,16.75
2023-05-07T13:07:46.066Z,16.68
2023-05-07T13:08:50.416Z,17.22
2023-05-07T13:09:54.476Z,17.21
2023-05-07T13:10:58.820Z,17.42
2023-05-07T13:11:59.456Z,17.82
2023-05-07T13:13:03.331Z,17.99
2023-05-07T13:14:07.614Z,17.67
2023-05-07T13:15:12.464Z,17.95
2023-05-07T13:16:16.702Z,18.14
2023-05-07T13:17:20.702Z,18.09
2023-05-07T13:18:25.522Z,17.75
2023-05-07T13:19:31.383Z,17.71
2023-05-07T13:20:33.658Z,17.95
2023-05-07T13:21:38.274Z,18.19
2023-05-07T13:22:42.348Z,18.38
2023-05-07T13:23:46.698Z,18.43
2023-05-07T13:24:51.294Z,18.48
2023-05-07T13:25:55.633Z,18.47
2023-05-07T13:26:59.957Z,18.28
2023-05-07T13:28:10.894Z,18.53
2023-05-07T13:29:08.613Z,18.70
2023-05-07T13:30:12.973Z,17.87
2023-05-07T13:31:17.081Z,17.67
2023-05-07T13:32:21.431Z,18.04
2023-05-07T13:33:25.723Z,18.30
2023-05-07T13:34:30.325Z,18.33
2023-05-07T13:35:34.666Z,18.12
2023-05-07T13:36:39.319Z,17.15
2023-05-07T13:37:43.603Z,17.52
2023-05-07T13:38:47.663Z,17.13
2023-05-07T13:39:51.997Z,16.92
2023-05-07T13:40:56.090Z,16.79
2023-05-07T13:41:56.577Z,16.88
2023-05-07T13:43:00.898Z,16.71
2023-05-07T13:44:04.976Z,16.62
2023-05-07T13:45:09.344Z,16.87
2023-05-07T13:46:13.694Z,16.98
2023-05-07T13:47:18.017Z,17.57
2023-05-07T13:48:22.872Z,17.41
2023-05-07T13:49:26.972Z,17.24